sensor_id;sensor_type;location;lat;lon;timestamp;P1;durP1;ratioP1;P2;durP2;ratioP2
19828;SDS011;10075;50.924;4.396;2022-08-18T00:01:07;315.98;;;91.13;;
19828;SDS011;10075;50.924;4.396;2022-08-18T00:03:35;407.88;;;97.80;;
19828;SDS011;10075;50.924;4.396;2022-08-18T00:06:02;383.05;;;91.47;;
19828;SDS011;10075;50.924;4.396;2022-08-18T00:08:31;577.90;;;101.85;;
19828;SDS011;10075;50.924;4.396;2022-08-18T00:10:58;687.90;;;118.88;;
19828;SDS011;10075;50.924;4.396;2022-08-18T00:13:25;469.67;;;99.82;;
19828;SDS011;10075;50.924;4.396;2022-08-18T00:15:53;141.48;;;78.78;;
19828;SDS011;10075;50.924;4.396;2022-08-18T00:18:19;131.10;;;74.30;;
19828;SDS011;10075;50.924;4.396;2022-08-18T00:20:46;156.85;;;81.40;;
19828;SDS011;10075;50.924;4.396;2022-08-18T00:23:14;131.32;;;75.97;;
19828;SDS011;10075;50.924;4.396;2022-08-18T00:25:42;136.25;;;75.85;;
19828;SDS011;10075;50.924;4.396;2022-08-18T00:28:09;144.27;;;74.32;;
19828;SDS011;10075;50.924;4.396;2022-08-18T00:30:37;148.30;;;79.75;;
19828;SDS011;10075;50.924;4.396;2022-08-18T00:33:04;144.63;;;75.78;;
19828;SDS011;10075;50.924;4.396;2022-08-18T00:35:32;163.40;;;78.50;;
19828;SDS011;10075;50.924;4.396;2022-08-18T00:38:01;386.80;;;85.70;;
19828;SDS011;10075;50.924;4.396;2022-08-18T00:40:31;247.65;;;84.13;;
19828;SDS011;10075;50.924;4.396;2022-08-18T00:43:04;126.57;;;73.32;;
19828;SDS011;10075;50.924;4.396;2022-08-18T00:45:34;304.92;;;89.00;;
19828;SDS011;10075;50.924;4.396;2022-08-18T00:48:04;141.48;;;78.28;;
19828;SDS011;10075;50.924;4.396;2022-08-18T00:50:33;247.77;;;84.05;;
19828;SDS011;10075;50.924;4.396;2022-08-18T00:53:04;332.88;;;81.70;;
19828;SDS011;10075;50.924;4.396;2022-08-18T00:55:36;199.18;;;78.45;;
19828;SDS011;10075;50.924;4.396;2022-08-18T00:58:07;185.70;;;81.43;;
19828;SDS011;10075;50.924;4.396;2022-08-18T01:00:39;534.13;;;101.32;;
19828;SDS011;10075;50.924;4.396;2022-08-18T01:03:08;422.02;;;92.70;;
19828;SDS011;10075;50.924;4.396;2022-08-18T01:05:39;166.25;;;78.43;;
19828;SDS011;10075;50.924;4.396;2022-08-18T01:08:12;196.95;;;77.18;;
19828;SDS011;10075;50.924;4.396;2022-08-18T01:10:41;365.17;;;88.68;;
19828;SDS011;10075;50.924;4.396;2022-08-18T01:13:10;256.55;;;82.25;;
19828;SDS011;10075;50.924;4.396;2022-08-18T01:15:38;250.02;;;84.35;;
19828;SDS011;10075;50.924;4.396;2022-08-18T01:18:06;164.13;;;80.97;;
19828;SDS011;10075;50.924;4.396;2022-08-18T01:20:55;203.77;;;86.25;;
19828;SDS011;10075;50.924;4.396;2022-08-18T01:23:47;198.27;;;78.72;;
19828;SDS011;10075;50.924;4.396;2022-08-18T01:26:17;161.05;;;77.80;;
19828;SDS011;10075;50.924;4.396;2022-08-18T01:28:45;258.27;;;83.10;;
19828;SDS011;10075;50.924;4.396;2022-08-18T01:31:27;218.18;;;83.70;;
19828;SDS011;10075;50.924;4.396;2022-08-18T01:33:58;140.88;;;74.40;;
19828;SDS011;10075;50.924;4.396;2022-08-18T01:36:26;165.48;;;80.78;;
19828;SDS011;10075;50.924;4.396;2022-08-18T01:38:55;152.05;;;82.22;;
19828;SDS011;10075;50.924;4.396;2022-08-18T01:41:22;136.68;;;77.53;;
19828;SDS011;10075;50.924;4.396;2022-08-18T01:43:50;140.93;;;79.55;;
19828;SDS011;10075;50.924;4.396;2022-08-18T01:46:17;187.80;;;83.43;;
19828;SDS011;10075;50.924;4.396;2022-08-18T01:48:45;171.68;;;81.63;;
19828;SDS011;10075;50.924;4.396;2022-08-18T01:51:14;150.10;;;79.38;;
19828;SDS011;10075;50.924;4.396;2022-08-18T01:53:48;138.70;;;78.30;;
19828;SDS011;10075;50.924;4.396;2022-08-18T01:56:17;157.70;;;78.18;;
19828;SDS011;10075;50.924;4.396;2022-08-18T01:58:44;124.05;;;72.47;;
19828;SDS011;10075;50.924;4.396;2022-08-18T02:01:12;141.88;;;78.38;;
19828;SDS011;10075;50.924;4.396;2022-08-18T02:03:41;167.65;;;81.60;;
19828;SDS011;10075;50.924;4.396;2022-08-18T02:06:11;208.30;;;88.20;;
19828;SDS011;10075;50.924;4.396;2022-08-18T02:08:40;166.88;;;81.93;;
19828;SDS011;10075;50.924;4.396;2022-08-18T02:11:07;196.48;;;89.43;;
19828;SDS011;10075;50.924;4.396;2022-08-18T02:13:35;191.10;;;89.78;;
19828;SDS011;10075;50.924;4.396;2022-08-18T02:16:02;215.85;;;92.65;;
19828;SDS011;10075;50.924;4.396;2022-08-18T02:18:31;169.52;;;82.50;;
19828;SDS011;10075;50.924;4.396;2022-08-18T02:21:04;206.93;;;89.90;;
19828;SDS011;10075;50.924;4.396;2022-08-18T02:23:34;190.57;;;87.15;;
19828;SDS011;10075;50.924;4.396;2022-08-18T02:26:03;206.05;;;87.47;;
19828;SDS011;10075;50.924;4.396;2022-08-18T02:28:31;191.23;;;86.25;;
19828;SDS011;10075;50.924;4.396;2022-08-18T02:31:04;177.10;;;85.15;;
19828;SDS011;10075;50.924;4.396;2022-08-18T02:33:32;197.02;;;88.45;;
19828;SDS011;10075;50.924;4.396;2022-08-18T02:35:59;208.75;;;88.65;;
19828;SDS011;10075;50.924;4.396;2022-08-18T02:38:27;850.72;;;123.38;;
19828;SDS011;10075;50.924;4.396;2022-08-18T02:40:54;750.55;;;110.45;;
19828;SDS011;10075;50.924;4.396;2022-08-18T02:43:22;694.33;;;106.65;;
19828;SDS011;10075;50.924;4.396;2022-08-18T02:45:49;440.67;;;95.88;;
19828;SDS011;10075;50.924;4.396;2022-08-18T02:48:17;495.73;;;102.43;;
19828;SDS011;10075;50.924;4.396;2022-08-18T02:50:47;691.47;;;118.13;;
19828;SDS011;10075;50.924;4.396;2022-08-18T02:53:14;579.10;;;106.32;;
19828;SDS011;10075;50.924;4.396;2022-08-18T02:55:46;634.63;;;107.38;;
19828;SDS011;10075;50.924;4.396;2022-08-18T02:58:14;565.10;;;105.72;;
19828;SDS011;10075;50.924;4.396;2022-08-18T03:00:41;715.38;;;110.97;;
19828;SDS011;10075;50.924;4.396;2022-08-18T03:03:08;223.20;;;78.50;;
19828;SDS011;10075;50.924;4.396;2022-08-18T03:05:36;584.22;;;105.38;;
19828;SDS011;10075;50.924;4.396;2022-08-18T03:08:03;242.35;;;80.03;;
19828;SDS011;10075;50.924;4.396;2022-08-18T03:10:30;226.48;;;76.97;;
19828;SDS011;10075;50.924;4.396;2022-08-18T03:12:57;232.98;;;74.07;;
19828;SDS011;10075;50.924;4.396;2022-08-18T03:15:25;806.15;;;112.85;;
19828;SDS011;10075;50.924;4.396;2022-08-18T03:17:52;618.70;;;101.53;;
19828;SDS011;10075;50.924;4.396;2022-08-18T03:20:19;842.33;;;112.57;;
19828;SDS011;10075;50.924;4.396;2022-08-18T03:22:47;501.88;;;95.72;;
19828;SDS011;10075;50.924;4.396;2022-08-18T03:25:14;583.60;;;96.00;;
19828;SDS011;10075;50.924;4.396;2022-08-18T03:27:41;156.88;;;76.28;;
19828;SDS011;10075;50.924;4.396;2022-08-18T03:30:08;134.43;;;71.28;;
19828;SDS011;10075;50.924;4.396;2022-08-18T03:32:36;207.45;;;72.93;;
19828;SDS011;10075;50.924;4.396;2022-08-18T03:35:03;181.85;;;78.13;;
19828;SDS011;10075;50.924;4.396;2022-08-18T03:37:31;478.27;;;89.50;;
19828;SDS011;10075;50.924;4.396;2022-08-18T03:40:00;225.95;;;74.47;;
19828;SDS011;10075;50.924;4.396;2022-08-18T03:42:27;173.38;;;71.70;;
19828;SDS011;10075;50.924;4.396;2022-08-18T03:44:54;162.73;;;74.85;;
19828;SDS011;10075;50.924;4.396;2022-08-18T03:47:21;147.05;;;71.65;;
19828;SDS011;10075;50.924;4.396;2022-08-18T03:49:47;115.38;;;65.50;;
19828;SDS011;10075;50.924;4.396;2022-08-18T03:52:15;126.90;;;69.03;;
19828;SDS011;10075;50.924;4.396;2022-08-18T03:54:41;139.63;;;70.43;;
19828;SDS011;10075;50.924;4.396;2022-08-18T03:57:10;150.02;;;71.10;;
19828;SDS011;10075;50.924;4.396;2022-08-18T03:59:37;169.27;;;77.57;;
19828;SDS011;10075;50.924;4.396;2022-08-18T04:02:07;161.52;;;72.78;;
19828;SDS011;10075;50.924;4.396;2022-08-18T04:04:36;124.68;;;69.88;;
19828;SDS011;10075;50.924;4.396;2022-08-18T04:07:05;132.93;;;70.32;;
19828;SDS011;10075;50.924;4.396;2022-08-18T04:09:35;117.75;;;66.00;;
19828;SDS011;10075;50.924;4.396;2022-08-18T04:12:04;122.28;;;65.35;;
19828;SDS011;10075;50.924;4.396;2022-08-18T04:14:37;131.85;;;68.30;;
19828;SDS011;10075;50.924;4.396;2022-08-18T04:17:06;169.70;;;77.68;;
19828;SDS011;10075;50.924;4.396;2022-08-18T04:19:34;149.93;;;72.60;;
19828;SDS011;10075;50.924;4.396;2022-08-18T04:22:02;183.18;;;76.82;;
19828;SDS011;10075;50.924;4.396;2022-08-18T04:24:30;251.05;;;84.30;;
19828;SDS011;10075;50.924;4.396;2022-08-18T04:26:59;304.88;;;90.78;;
19828;SDS011;10075;50.924;4.396;2022-08-18T04:29:26;412.33;;;87.80;;
19828;SDS011;10075;50.924;4.396;2022-08-18T04:31:55;155.90;;;73.65;;
19828;SDS011;10075;50.924;4.396;2022-08-18T04:34:25;555.03;;;84.32;;
19828;SDS011;10075;50.924;4.396;2022-08-18T04:36:52;767.70;;;99.95;;
19828;SDS011;10075;50.924;4.396;2022-08-18T04:39:19;403.35;;;83.82;;
19828;SDS011;10075;50.924;4.396;2022-08-18T04:41:48;681.28;;;99.90;;
19828;SDS011;10075;50.924;4.396;2022-08-18T04:44:15;779.90;;;100.05;;
19828;SDS011;10075;50.924;4.396;2022-08-18T04:46:43;792.75;;;101.30;;
19828;SDS011;10075;50.924;4.396;2022-08-18T04:49:14;808.00;;;108.03;;
19828;SDS011;10075;50.924;4.396;2022-08-18T04:51:43;629.72;;;95.55;;
19828;SDS011;10075;50.924;4.396;2022-08-18T04:54:34;306.40;;;82.30;;
19828;SDS011;10075;50.924;4.396;2022-08-18T04:57:07;363.58;;;83.30;;
19828;SDS011;10075;50.924;4.396;2022-08-18T04:59:35;667.72;;;99.75;;
19828;SDS011;10075;50.924;4.396;2022-08-18T05:02:02;674.05;;;95.28;;
19828;SDS011;10075;50.924;4.396;2022-08-18T05:04:33;222.05;;;71.70;;
19828;SDS011;10075;50.924;4.396;2022-08-18T05:07:02;97.10;;;56.53;;
19828;SDS011;10075;50.924;4.396;2022-08-18T05:09:30;202.88;;;66.47;;
19828;SDS011;10075;50.924;4.396;2022-08-18T05:11:57;199.77;;;68.63;;
19828;SDS011;10075;50.924;4.396;2022-08-18T05:14:24;342.75;;;74.45;;
19828;SDS011;10075;50.924;4.396;2022-08-18T05:16:51;224.43;;;68.00;;
19828;SDS011;10075;50.924;4.396;2022-08-18T05:19:19;388.13;;;78.68;;
19828;SDS011;10075;50.924;4.396;2022-08-18T05:21:49;346.58;;;81.25;;
19828;SDS011;10075;50.924;4.396;2022-08-18T05:24:17;279.73;;;70.88;;
19828;SDS011;10075;50.924;4.396;2022-08-18T05:26:45;142.48;;;61.90;;
19828;SDS011;10075;50.924;4.396;2022-08-18T05:29:13;291.30;;;75.00;;
19828;SDS011;10075;50.924;4.396;2022-08-18T05:31:40;455.40;;;77.97;;
19828;SDS011;10075;50.924;4.396;2022-08-18T05:34:08;362.67;;;75.88;;
19828;SDS011;10075;50.924;4.396;2022-08-18T05:36:49;171.65;;;63.08;;
19828;SDS011;10075;50.924;4.396;2022-08-18T05:39:24;385.33;;;77.65;;
19828;SDS011;10075;50.924;4.396;2022-08-18T05:41:59;300.30;;;70.63;;
19828;SDS011;10075;50.924;4.396;2022-08-18T05:44:31;103.65;;;60.90;;
19828;SDS011;10075;50.924;4.396;2022-08-18T05:47:02;145.25;;;61.33;;
19828;SDS011;10075;50.924;4.396;2022-08-18T05:49:31;138.63;;;65.25;;
19828;SDS011;10075;50.924;4.396;2022-08-18T05:52:02;108.38;;;55.42;;
19828;SDS011;10075;50.924;4.396;2022-08-18T05:54:35;83.35;;;54.47;;
19828;SDS011;10075;50.924;4.396;2022-08-18T05:57:21;75.20;;;51.95;;
19828;SDS011;10075;50.924;4.396;2022-08-18T05:59:51;74.88;;;51.40;;
19828;SDS011;10075;50.924;4.396;2022-08-18T06:02:23;77.93;;;52.85;;
19828;SDS011;10075;50.924;4.396;2022-08-18T06:04:57;60.65;;;46.78;;
19828;SDS011;10075;50.924;4.396;2022-08-18T06:07:32;66.35;;;47.95;;
19828;SDS011;10075;50.924;4.396;2022-08-18T06:10:05;52.88;;;40.65;;
19828;SDS011;10075;50.924;4.396;2022-08-18T06:12:35;67.85;;;48.35;;
19828;SDS011;10075;50.924;4.396;2022-08-18T06:15:07;72.40;;;50.47;;
19828;SDS011;10075;50.924;4.396;2022-08-18T06:17:52;76.28;;;52.40;;
19828;SDS011;10075;50.924;4.396;2022-08-18T06:20:33;83.63;;;54.10;;
19828;SDS011;10075;50.924;4.396;2022-08-18T06:23:16;78.43;;;53.60;;
19828;SDS011;10075;50.924;4.396;2022-08-18T06:25:55;80.63;;;54.22;;
19828;SDS011;10075;50.924;4.396;2022-08-18T06:28:35;84.15;;;54.40;;
19828;SDS011;10075;50.924;4.396;2022-08-18T06:31:11;89.90;;;57.33;;
19828;SDS011;10075;50.924;4.396;2022-08-18T06:33:44;87.47;;;58.25;;
19828;SDS011;10075;50.924;4.396;2022-08-18T06:36:20;80.78;;;56.08;;
19828;SDS011;10075;50.924;4.396;2022-08-18T06:38:59;94.50;;;59.17;;
19828;SDS011;10075;50.924;4.396;2022-08-18T06:41:32;71.15;;;50.90;;
19828;SDS011;10075;50.924;4.396;2022-08-18T06:44:05;73.78;;;51.55;;
19828;SDS011;10075;50.924;4.396;2022-08-18T06:46:36;78.72;;;52.58;;
19828;SDS011;10075;50.924;4.396;2022-08-18T06:49:08;80.85;;;55.53;;
19828;SDS011;10075;50.924;4.396;2022-08-18T06:51:37;86.10;;;55.67;;
19828;SDS011;10075;50.924;4.396;2022-08-18T06:54:06;85.13;;;53.75;;
19828;SDS011;10075;50.924;4.396;2022-08-18T06:56:51;79.45;;;52.83;;
19828;SDS011;10075;50.924;4.396;2022-08-18T06:59:20;91.30;;;58.70;;
19828;SDS011;10075;50.924;4.396;2022-08-18T07:01:51;98.32;;;61.45;;
19828;SDS011;10075;50.924;4.396;2022-08-18T07:04:40;102.50;;;62.17;;
19828;SDS011;10075;50.924;4.396;2022-08-18T07:07:16;96.85;;;61.97;;
19828;SDS011;10075;50.924;4.396;2022-08-18T07:09:47;89.88;;;59.22;;
19828;SDS011;10075;50.924;4.396;2022-08-18T07:12:19;94.20;;;58.50;;
19828;SDS011;10075;50.924;4.396;2022-08-18T07:14:50;97.07;;;62.13;;
19828;SDS011;10075;50.924;4.396;2022-08-18T07:17:21;91.90;;;57.92;;
19828;SDS011;10075;50.924;4.396;2022-08-18T07:19:55;79.65;;;52.63;;
19828;SDS011;10075;50.924;4.396;2022-08-18T07:22:31;63.20;;;46.08;;
19828;SDS011;10075;50.924;4.396;2022-08-18T07:25:20;63.53;;;44.50;;
19828;SDS011;10075;50.924;4.396;2022-08-18T07:27:50;61.03;;;43.08;;
19828;SDS011;10075;50.924;4.396;2022-08-18T07:30:25;79.82;;;47.55;;
19828;SDS011;10075;50.924;4.396;2022-08-18T07:32:59;76.38;;;41.28;;
19828;SDS011;10075;50.924;4.396;2022-08-18T07:35:34;67.22;;;41.92;;
19828;SDS011;10075;50.924;4.396;2022-08-18T07:38:05;67.28;;;39.42;;
19828;SDS011;10075;50.924;4.396;2022-08-18T07:40:45;50.45;;;31.13;;
19828;SDS011;10075;50.924;4.396;2022-08-18T07:43:19;53.75;;;32.60;;
19828;SDS011;10075;50.924;4.396;2022-08-18T07:45:51;47.83;;;31.65;;
19828;SDS011;10075;50.924;4.396;2022-08-18T07:48:30;44.50;;;29.70;;
19828;SDS011;10075;50.924;4.396;2022-08-18T07:51:00;38.03;;;27.83;;
19828;SDS011;10075;50.924;4.396;2022-08-18T07:53:39;38.78;;;25.20;;
19828;SDS011;10075;50.924;4.396;2022-08-18T07:56:17;39.88;;;25.95;;
19828;SDS011;10075;50.924;4.396;2022-08-18T07:58:50;37.40;;;22.60;;
19828;SDS011;10075;50.924;4.396;2022-08-18T08:01:26;38.60;;;26.35;;
19828;SDS011;10075;50.924;4.396;2022-08-18T08:04:03;33.03;;;23.75;;
19828;SDS011;10075;50.924;4.396;2022-08-18T08:06:38;30.67;;;20.92;;
19828;SDS011;10075;50.924;4.396;2022-08-18T08:09:10;27.50;;;19.27;;
19828;SDS011;10075;50.924;4.396;2022-08-18T08:11:46;27.38;;;19.88;;
19828;SDS011;10075;50.924;4.396;2022-08-18T08:14:27;25.92;;;16.33;;
19828;SDS011;10075;50.924;4.396;2022-08-18T08:17:03;25.42;;;15.45;;
19828;SDS011;10075;50.924;4.396;2022-08-18T08:19:44;38.63;;;20.27;;
19828;SDS011;10075;50.924;4.396;2022-08-18T08:22:23;30.80;;;17.88;;
19828;SDS011;10075;50.924;4.396;2022-08-18T08:24:58;25.73;;;17.02;;
19828;SDS011;10075;50.924;4.396;2022-08-18T08:27:36;26.27;;;18.10;;
19828;SDS011;10075;50.924;4.396;2022-08-18T08:30:15;33.00;;;18.55;;
19828;SDS011;10075;50.924;4.396;2022-08-18T08:32:46;28.83;;;18.48;;
19828;SDS011;10075;50.924;4.396;2022-08-18T08:35:22;23.83;;;17.00;;
19828;SDS011;10075;50.924;4.396;2022-08-18T08:38:00;22.85;;;16.00;;
19828;SDS011;10075;50.924;4.396;2022-08-18T08:40:39;24.20;;;18.08;;
19828;SDS011;10075;50.924;4.396;2022-08-18T08:43:16;22.15;;;16.55;;
19828;SDS011;10075;50.924;4.396;2022-08-18T08:45:50;20.55;;;14.25;;
19828;SDS011;10075;50.924;4.396;2022-08-18T08:48:25;19.75;;;13.13;;
19828;SDS011;10075;50.924;4.396;2022-08-18T08:50:57;22.67;;;11.77;;
19828;SDS011;10075;50.924;4.396;2022-08-18T08:53:28;21.13;;;11.82;;
19828;SDS011;10075;50.924;4.396;2022-08-18T08:56:00;18.40;;;13.40;;
19828;SDS011;10075;50.924;4.396;2022-08-18T08:58:34;18.92;;;12.20;;
19828;SDS011;10075;50.924;4.396;2022-08-18T09:01:08;21.33;;;13.15;;
19828;SDS011;10075;50.924;4.396;2022-08-18T09:03:52;14.55;;;12.18;;
19828;SDS011;10075;50.924;4.396;2022-08-18T09:06:26;14.70;;;11.02;;
19828;SDS011;10075;50.924;4.396;2022-08-18T09:09:12;15.75;;;10.75;;
19828;SDS011;10075;50.924;4.396;2022-08-18T09:12:03;17.83;;;11.85;;
19828;SDS011;10075;50.924;4.396;2022-08-18T09:14:48;16.77;;;11.95;;
19828;SDS011;10075;50.924;4.396;2022-08-18T09:17:38;19.88;;;12.45;;
19828;SDS011;10075;50.924;4.396;2022-08-18T09:20:26;14.27;;;12.05;;
19828;SDS011;10075;50.924;4.396;2022-08-18T09:23:05;16.23;;;12.70;;
19828;SDS011;10075;50.924;4.396;2022-08-18T09:25:43;13.70;;;11.70;;
19828;SDS011;10075;50.924;4.396;2022-08-18T09:28:14;16.42;;;10.73;;
19828;SDS011;10075;50.924;4.396;2022-08-18T09:30:46;13.70;;;10.45;;
19828;SDS011;10075;50.924;4.396;2022-08-18T09:33:20;14.35;;;11.80;;
19828;SDS011;10075;50.924;4.396;2022-08-18T09:35:57;17.90;;;10.60;;
19828;SDS011;10075;50.924;4.396;2022-08-18T09:38:31;12.13;;;9.35;;
19828;SDS011;10075;50.924;4.396;2022-08-18T09:41:22;11.00;;;8.82;;
19828;SDS011;10075;50.924;4.396;2022-08-18T09:44:00;12.70;;;9.63;;
19828;SDS011;10075;50.924;4.396;2022-08-18T09:46:53;13.60;;;8.63;;
19828;SDS011;10075;50.924;4.396;2022-08-18T09:49:39;28.73;;;11.88;;
19828;SDS011;10075;50.924;4.396;2022-08-18T09:55:48;20.48;;;12.20;;
19828;SDS011;10075;50.924;4.396;2022-08-18T09:58:31;11.48;;;9.68;;
19828;SDS011;10075;50.924;4.396;2022-08-18T10:01:19;15.73;;;13.27;;
19828;SDS011;10075;50.924;4.396;2022-08-18T10:09:45;17.40;;;15.57;;
19828;SDS011;10075;50.924;4.396;2022-08-18T10:12:40;16.30;;;14.60;;
19828;SDS011;10075;50.924;4.396;2022-08-18T10:15:25;15.93;;;14.18;;
19828;SDS011;10075;50.924;4.396;2022-08-18T10:18:19;16.55;;;13.85;;
19828;SDS011;10075;50.924;4.396;2022-08-18T10:21:06;16.10;;;13.23;;
19828;SDS011;10075;50.924;4.396;2022-08-18T10:23:41;15.55;;;12.82;;
19828;SDS011;10075;50.924;4.396;2022-08-18T10:38:21;14.82;;;13.35;;
19828;SDS011;10075;50.924;4.396;2022-08-18T10:40:52;13.73;;;12.32;;
19828;SDS011;10075;50.924;4.396;2022-08-18T10:43:27;13.52;;;12.27;;
19828;SDS011;10075;50.924;4.396;2022-08-18T10:45:59;14.25;;;12.27;;
19828;SDS011;10075;50.924;4.396;2022-08-18T10:48:28;14.70;;;12.18;;
19828;SDS011;10075;50.924;4.396;2022-08-18T10:50:58;16.05;;;12.32;;
19828;SDS011;10075;50.924;4.396;2022-08-18T10:53:35;16.35;;;13.98;;
19828;SDS011;10075;50.924;4.396;2022-08-18T10:56:09;17.20;;;13.95;;
19828;SDS011;10075;50.924;4.396;2022-08-18T10:58:50;15.20;;;13.57;;
19828;SDS011;10075;50.924;4.396;2022-08-18T11:01:36;15.15;;;13.75;;
19828;SDS011;10075;50.924;4.396;2022-08-18T11:04:23;15.10;;;13.07;;
19828;SDS011;10075;50.924;4.396;2022-08-18T11:06:57;11.95;;;10.85;;
19828;SDS011;10075;50.924;4.396;2022-08-18T11:09:30;16.92;;;15.32;;
19828;SDS011;10075;50.924;4.396;2022-08-18T11:11:58;17.38;;;15.75;;
19828;SDS011;10075;50.924;4.396;2022-08-18T11:14:34;19.35;;;17.35;;
19828;SDS011;10075;50.924;4.396;2022-08-18T11:17:13;21.45;;;19.55;;
19828;SDS011;10075;50.924;4.396;2022-08-18T11:19:47;18.45;;;16.65;;
19828;SDS011;10075;50.924;4.396;2022-08-18T11:22:22;16.83;;;14.98;;
19828;SDS011;10075;50.924;4.396;2022-08-18T11:24:51;20.15;;;18.25;;
19828;SDS011;10075;50.924;4.396;2022-08-18T11:27:19;18.77;;;17.08;;
19828;SDS011;10075;50.924;4.396;2022-08-18T11:29:48;19.23;;;17.23;;
19828;SDS011;10075;50.924;4.396;2022-08-18T11:32:17;17.35;;;14.30;;
19828;SDS011;10075;50.924;4.396;2022-08-18T11:34:48;13.90;;;12.60;;
19828;SDS011;10075;50.924;4.396;2022-08-18T11:37:22;17.80;;;16.08;;
19828;SDS011;10075;50.924;4.396;2022-08-18T11:39:54;17.13;;;15.70;;
19828;SDS011;10075;50.924;4.396;2022-08-18T11:42:26;17.55;;;15.55;;
19828;SDS011;10075;50.924;4.396;2022-08-18T11:45:00;20.88;;;18.92;;
19828;SDS011;10075;50.924;4.396;2022-08-18T11:47:32;20.75;;;18.60;;
19828;SDS011;10075;50.924;4.396;2022-08-18T11:50:06;20.75;;;18.77;;
19828;SDS011;10075;50.924;4.396;2022-08-18T11:52:45;19.13;;;17.17;;
19828;SDS011;10075;50.924;4.396;2022-08-18T11:55:19;17.30;;;15.75;;
19828;SDS011;10075;50.924;4.396;2022-08-18T11:57:56;15.05;;;13.68;;
19828;SDS011;10075;50.924;4.396;2022-08-18T12:03:25;18.98;;;17.25;;
19828;SDS011;10075;50.924;4.396;2022-08-18T12:05:56;22.15;;;19.75;;
19828;SDS011;10075;50.924;4.396;2022-08-18T12:08:32;19.95;;;18.23;;
19828;SDS011;10075;50.924;4.396;2022-08-18T12:11:04;19.95;;;18.15;;
19828;SDS011;10075;50.924;4.396;2022-08-18T12:13:40;22.35;;;20.25;;
19828;SDS011;10075;50.924;4.396;2022-08-18T12:16:11;26.85;;;24.20;;
19828;SDS011;10075;50.924;4.396;2022-08-18T12:18:41;21.17;;;19.27;;
19828;SDS011;10075;50.924;4.396;2022-08-18T12:21:08;21.40;;;19.35;;
19828;SDS011;10075;50.924;4.396;2022-08-18T12:23:37;23.30;;;21.20;;
19828;SDS011;10075;50.924;4.396;2022-08-18T12:26:08;25.20;;;22.42;;
19828;SDS011;10075;50.924;4.396;2022-08-18T12:28:35;23.85;;;21.60;;
19828;SDS011;10075;50.924;4.396;2022-08-18T12:31:03;21.00;;;19.02;;
19828;SDS011;10075;50.924;4.396;2022-08-18T12:33:31;21.48;;;19.38;;
19828;SDS011;10075;50.924;4.396;2022-08-18T12:35:58;19.95;;;18.25;;
19828;SDS011;10075;50.924;4.396;2022-08-18T12:38:25;18.48;;;16.73;;
19828;SDS011;10075;50.924;4.396;2022-08-18T12:40:52;18.48;;;16.60;;
19828;SDS011;10075;50.924;4.396;2022-08-18T12:43:20;20.00;;;17.73;;
19828;SDS011;10075;50.924;4.396;2022-08-18T12:45:47;23.88;;;21.70;;
19828;SDS011;10075;50.924;4.396;2022-08-18T12:48:14;19.83;;;18.02;;
19828;SDS011;10075;50.924;4.396;2022-08-18T12:50:41;21.00;;;19.00;;
19828;SDS011;10075;50.924;4.396;2022-08-18T12:53:09;20.08;;;18.25;;
19828;SDS011;10075;50.924;4.396;2022-08-18T12:55:37;22.17;;;20.17;;
19828;SDS011;10075;50.924;4.396;2022-08-18T12:58:07;22.15;;;20.10;;
19828;SDS011;10075;50.924;4.396;2022-08-18T13:00:35;22.63;;;20.58;;
19828;SDS011;10075;50.924;4.396;2022-08-18T13:03:04;24.17;;;21.90;;
19828;SDS011;10075;50.924;4.396;2022-08-18T13:05:31;24.17;;;21.85;;
19828;SDS011;10075;50.924;4.396;2022-08-18T13:08:00;24.13;;;21.88;;
19828;SDS011;10075;50.924;4.396;2022-08-18T13:10:29;24.17;;;21.90;;
19828;SDS011;10075;50.924;4.396;2022-08-18T13:12:56;21.63;;;19.65;;
19828;SDS011;10075;50.924;4.396;2022-08-18T13:15:22;22.02;;;19.77;;
19828;SDS011;10075;50.924;4.396;2022-08-18T13:17:51;20.23;;;18.13;;
19828;SDS011;10075;50.924;4.396;2022-08-18T13:20:18;19.17;;;17.20;;
19828;SDS011;10075;50.924;4.396;2022-08-18T13:22:46;19.48;;;17.60;;
19828;SDS011;10075;50.924;4.396;2022-08-18T13:25:14;28.90;;;25.52;;
19828;SDS011;10075;50.924;4.396;2022-08-18T13:27:42;21.27;;;19.23;;
19828;SDS011;10075;50.924;4.396;2022-08-18T13:30:10;24.40;;;22.05;;
19828;SDS011;10075;50.924;4.396;2022-08-18T13:32:39;18.02;;;16.35;;
19828;SDS011;10075;50.924;4.396;2022-08-18T13:35:09;19.35;;;16.50;;
19828;SDS011;10075;50.924;4.396;2022-08-18T13:37:36;16.90;;;15.27;;
19828;SDS011;10075;50.924;4.396;2022-08-18T13:40:03;18.88;;;17.15;;
19828;SDS011;10075;50.924;4.396;2022-08-18T13:42:34;16.42;;;14.93;;
19828;SDS011;10075;50.924;4.396;2022-08-18T13:45:07;15.05;;;13.65;;
19828;SDS011;10075;50.924;4.396;2022-08-18T13:47:37;21.77;;;19.73;;
19828;SDS011;10075;50.924;4.396;2022-08-18T13:50:05;19.63;;;17.65;;
19828;SDS011;10075;50.924;4.396;2022-08-18T13:52:33;18.63;;;16.10;;
19828;SDS011;10075;50.924;4.396;2022-08-18T13:55:03;18.75;;;16.90;;
19828;SDS011;10075;50.924;4.396;2022-08-18T13:57:32;19.23;;;17.15;;
19828;SDS011;10075;50.924;4.396;2022-08-18T13:59:59;19.50;;;17.42;;
19828;SDS011;10075;50.924;4.396;2022-08-18T14:02:26;18.08;;;16.48;;
19828;SDS011;10075;50.924;4.396;2022-08-18T14:04:53;16.85;;;15.23;;
19828;SDS011;10075;50.924;4.396;2022-08-18T14:07:20;17.98;;;16.27;;
19828;SDS011;10075;50.924;4.396;2022-08-18T14:09:48;15.18;;;12.63;;
19828;SDS011;10075;50.924;4.396;2022-08-18T14:12:16;16.33;;;13.32;;
19828;SDS011;10075;50.924;4.396;2022-08-18T14:14:45;13.68;;;12.25;;
19828;SDS011;10075;50.924;4.396;2022-08-18T14:17:12;12.25;;;11.15;;
19828;SDS011;10075;50.924;4.396;2022-08-18T14:19:39;11.52;;;10.35;;
19828;SDS011;10075;50.924;4.396;2022-08-18T14:22:24;11.15;;;9.88;;
19828;SDS011;10075;50.924;4.396;2022-08-18T14:25:10;11.65;;;9.80;;
19828;SDS011;10075;50.924;4.396;2022-08-18T14:27:55;9.30;;;7.82;;
19828;SDS011;10075;50.924;4.396;2022-08-18T14:30:23;8.95;;;8.05;;
19828;SDS011;10075;50.924;4.396;2022-08-18T14:32:50;7.32;;;6.63;;
19828;SDS011;10075;50.924;4.396;2022-08-18T14:35:18;11.02;;;9.93;;
19828;SDS011;10075;50.924;4.396;2022-08-18T14:37:46;12.73;;;10.73;;
19828;SDS011;10075;50.924;4.396;2022-08-18T14:40:15;11.60;;;10.38;;
19828;SDS011;10075;50.924;4.396;2022-08-18T14:42:44;9.90;;;8.90;;
19828;SDS011;10075;50.924;4.396;2022-08-18T14:45:12;10.90;;;8.30;;
19828;SDS011;10075;50.924;4.396;2022-08-18T14:47:39;9.43;;;8.52;;
19828;SDS011;10075;50.924;4.396;2022-08-18T14:50:07;8.57;;;7.15;;
19828;SDS011;10075;50.924;4.396;2022-08-18T14:52:37;8.63;;;7.35;;
19828;SDS011;10075;50.924;4.396;2022-08-18T14:55:05;8.75;;;7.97;;
19828;SDS011;10075;50.924;4.396;2022-08-18T14:57:34;9.00;;;8.13;;
19828;SDS011;10075;50.924;4.396;2022-08-18T15:00:02;8.30;;;7.28;;
19828;SDS011;10075;50.924;4.396;2022-08-18T15:02:31;8.30;;;7.50;;
19828;SDS011;10075;50.924;4.396;2022-08-18T15:04:58;8.48;;;6.10;;
19828;SDS011;10075;50.924;4.396;2022-08-18T15:07:25;7.43;;;6.72;;